Terminal Aerodrome Forecast
Issued by NWS Topeka, KS

Home | Current Version | Previous Version | Text Only | Print | Product List | Glossary Off
Versions: 1 2 3 4 5 6 7 8 9 10 11 12 13 14 15 16 17 18 19

033
FTUS43 KTOP 161337 AAA
TAFTOP
TAF AMD
KTOP 161337Z 1614/1712 17010KT P6SM -SHRA VCTS BKN015 OVC030CB
     FM161700 19008KT P6SM SCT030
     FM162100 22008KT P6SM TSRA BKN040CB
     FM170300 28005KT P6SM BKN110=

USA.gov is the U.S. government's official web portal to all federal, state and local government web resources and services.